sensor_id;sensor_type;location;lat;lon;timestamp;temperature;humidity
9861;DHT22;4969;52.304;4.968;2022-12-05T00:00:09;8.05;75.56
9861;DHT22;4969;52.304;4.968;2022-12-05T00:02:36;6.99;79.36
9861;DHT22;4969;52.304;4.968;2022-12-05T00:05:03;6.88;76.95
9861;DHT22;4969;52.304;4.968;2022-12-05T00:07:30;8.38;84.33
9861;DHT22;4969;52.304;4.968;2022-12-05T00:09:57;7.74;74.18
9861;DHT22;4969;52.304;4.968;2022-12-05T00:12:24;8.50;77.56
9861;DHT22;4969;52.304;4.968;2022-12-05T00:14:52;7.98;68.02
9861;DHT22;4969;52.304;4.968;2022-12-05T00:17:19;7.33;75.52
9861;DHT22;4969;52.304;4.968;2022-12-05T00:19:46;8.23;81.22
9861;DHT22;4969;52.304;4.968;2022-12-05T00:22:12;6.88;73.17
9861;DHT22;4969;52.304;4.968;2022-12-05T00:24:39;6.78;76.65
9861;DHT22;4969;52.304;4.968;2022-12-05T00:27:05;7.74;74.75
9861;DHT22;4969;52.304;4.968;2022-12-05T00:29:32;7.16;79.54
9861;DHT22;4969;52.304;4.968;2022-12-05T00:32:00;7.11;78.99
9861;DHT22;4969;52.304;4.968;2022-12-05T00:34:26;7.11;75.89
9861;DHT22;4969;52.304;4.968;2022-12-05T00:36:53;8.45;70.57
9861;DHT22;4969;52.304;4.968;2022-12-05T00:39:20;7.74;73.84
9861;DHT22;4969;52.304;4.968;2022-12-05T00:41:46;7.31;74.07
9861;DHT22;4969;52.304;4.968;2022-12-05T00:44:13;7.31;72.10
9861;DHT22;4969;52.304;4.968;2022-12-05T00:46:39;8.32;81.03
9861;DHT22;4969;52.304;4.968;2022-12-05T00:49:09;7.40;78.77
9861;DHT22;4969;52.304;4.968;2022-12-05T00:51:38;8.09;74.08
9861;DHT22;4969;52.304;4.968;2022-12-05T00:54:07;7.26;78.09
9861;DHT22;4969;52.304;4.968;2022-12-05T00:56:34;7.22;79.38
9861;DHT22;4969;52.304;4.968;2022-12-05T00:59:02;7.11;73.85
9861;DHT22;4969;52.304;4.968;2022-12-05T01:01:30;7.20;80.34
9861;DHT22;4969;52.304;4.968;2022-12-05T01:03:59;7.62;74.51
9861;DHT22;4969;52.304;4.968;2022-12-05T01:06:28;7.44;75.70
9861;DHT22;4969;52.304;4.968;2022-12-05T01:08:55;6.73;76.74
9861;DHT22;4969;52.304;4.968;2022-12-05T01:11:22;7.27;76.46
9861;DHT22;4969;52.304;4.968;2022-12-05T01:13:50;9.61;79.99
9861;DHT22;4969;52.304;4.968;2022-12-05T01:16:19;7.77;70.01
9861;DHT22;4969;52.304;4.968;2022-12-05T01:18:46;7.26;82.30
9861;DHT22;4969;52.304;4.968;2022-12-05T01:21:12;7.74;78.56
9861;DHT22;4969;52.304;4.968;2022-12-05T01:23:40;8.16;77.47
9861;DHT22;4969;52.304;4.968;2022-12-05T01:26:09;8.09;74.20
9861;DHT22;4969;52.304;4.968;2022-12-05T01:28:37;8.27;71.76
9861;DHT22;4969;52.304;4.968;2022-12-05T01:31:06;7.91;73.26
9861;DHT22;4969;52.304;4.968;2022-12-05T01:33:34;7.30;74.47
9861;DHT22;4969;52.304;4.968;2022-12-05T01:36:01;8.32;81.26
9861;DHT22;4969;52.304;4.968;2022-12-05T01:38:28;7.11;76.62
9861;DHT22;4969;52.304;4.968;2022-12-05T01:41:01;7.13;77.58
9861;DHT22;4969;52.304;4.968;2022-12-05T01:43:28;7.20;79.04
9861;DHT22;4969;52.304;4.968;2022-12-05T01:45:55;8.78;83.67
9861;DHT22;4969;52.304;4.968;2022-12-05T01:48:24;8.01;70.68
9861;DHT22;4969;52.304;4.968;2022-12-05T01:50:52;7.58;77.79
9861;DHT22;4969;52.304;4.968;2022-12-05T01:53:20;7.11;73.69
9861;DHT22;4969;52.304;4.968;2022-12-05T01:55:48;7.85;79.40
9861;DHT22;4969;52.304;4.968;2022-12-05T01:58:17;6.67;74.66
9861;DHT22;4969;52.304;4.968;2022-12-05T02:00:44;7.36;79.15
9861;DHT22;4969;52.304;4.968;2022-12-05T02:03:14;7.60;76.52
9861;DHT22;4969;52.304;4.968;2022-12-05T02:05:42;7.69;72.90
9861;DHT22;4969;52.304;4.968;2022-12-05T02:08:10;6.68;75.55
9861;DHT22;4969;52.304;4.968;2022-12-05T02:10:39;7.78;79.81
9861;DHT22;4969;52.304;4.968;2022-12-05T02:13:22;7.84;83.12
9861;DHT22;4969;52.304;4.968;2022-12-05T02:15:59;8.03;73.72
9861;DHT22;4969;52.304;4.968;2022-12-05T02:18:38;6.50;76.35
9861;DHT22;4969;52.304;4.968;2022-12-05T02:21:37;6.70;79.60
9861;DHT22;4969;52.304;4.968;2022-12-05T02:24:23;6.53;78.22
9861;DHT22;4969;52.304;4.968;2022-12-05T02:27:12;7.02;77.95
9861;DHT22;4969;52.304;4.968;2022-12-05T02:29:55;6.34;77.04
9861;DHT22;4969;52.304;4.968;2022-12-05T02:32:32;6.78;76.47
9861;DHT22;4969;52.304;4.968;2022-12-05T02:35:08;7.16;77.80
9861;DHT22;4969;52.304;4.968;2022-12-05T02:37:41;8.19;78.79
9861;DHT22;4969;52.304;4.968;2022-12-05T02:40:13;7.65;76.94
9861;DHT22;4969;52.304;4.968;2022-12-05T02:42:45;6.98;78.68
9861;DHT22;4969;52.304;4.968;2022-12-05T02:45:17;7.36;76.36
9861;DHT22;4969;52.304;4.968;2022-12-05T02:47:49;7.29;73.28
9861;DHT22;4969;52.304;4.968;2022-12-05T02:50:18;6.96;80.34
9861;DHT22;4969;52.304;4.968;2022-12-05T02:52:47;7.81;78.92
9861;DHT22;4969;52.304;4.968;2022-12-05T02:55:15;7.15;74.52
9861;DHT22;4969;52.304;4.968;2022-12-05T02:57:45;7.99;84.95
9861;DHT22;4969;52.304;4.968;2022-12-05T03:00:16;7.89;76.43
9861;DHT22;4969;52.304;4.968;2022-12-05T03:02:42;8.02;76.72
9861;DHT22;4969;52.304;4.968;2022-12-05T03:05:14;8.38;82.99
9861;DHT22;4969;52.304;4.968;2022-12-05T03:07:45;8.71;80.13
9861;DHT22;4969;52.304;4.968;2022-12-05T03:10:16;7.52;74.04
9861;DHT22;4969;52.304;4.968;2022-12-05T03:12:48;7.57;76.45
9861;DHT22;4969;52.304;4.968;2022-12-05T03:15:21;7.46;74.33
9861;DHT22;4969;52.304;4.968;2022-12-05T03:17:52;8.06;76.52
9861;DHT22;4969;52.304;4.968;2022-12-05T03:20:23;8.20;76.56
9861;DHT22;4969;52.304;4.968;2022-12-05T03:22:53;7.64;77.40
9861;DHT22;4969;52.304;4.968;2022-12-05T03:25:27;7.51;75.09
9861;DHT22;4969;52.304;4.968;2022-12-05T03:28:02;7.68;80.28
9861;DHT22;4969;52.304;4.968;2022-12-05T03:30:34;7.11;75.71
9861;DHT22;4969;52.304;4.968;2022-12-05T03:33:08;6.88;79.62
9861;DHT22;4969;52.304;4.968;2022-12-05T03:35:41;6.87;80.37
9861;DHT22;4969;52.304;4.968;2022-12-05T03:38:12;7.11;82.23
9861;DHT22;4969;52.304;4.968;2022-12-05T03:40:41;7.01;79.09
9861;DHT22;4969;52.304;4.968;2022-12-05T03:43:14;8.40;80.02
9861;DHT22;4969;52.304;4.968;2022-12-05T03:45:47;7.11;77.85
9861;DHT22;4969;52.304;4.968;2022-12-05T03:48:19;7.43;78.28
9861;DHT22;4969;52.304;4.968;2022-12-05T03:50:49;7.51;79.96
9861;DHT22;4969;52.304;4.968;2022-12-05T03:53:21;8.50;82.04
9861;DHT22;4969;52.304;4.968;2022-12-05T03:55:55;8.73;76.47
9861;DHT22;4969;52.304;4.968;2022-12-05T03:58:26;8.89;76.12
9861;DHT22;4969;52.304;4.968;2022-12-05T04:00:59;8.37;74.90
9861;DHT22;4969;52.304;4.968;2022-12-05T04:03:31;8.45;77.72
9861;DHT22;4969;52.304;4.968;2022-12-05T04:06:09;7.81;77.16
9861;DHT22;4969;52.304;4.968;2022-12-05T04:08:39;9.06;79.79
9861;DHT22;4969;52.304;4.968;2022-12-05T04:11:12;7.84;78.71
9861;DHT22;4969;52.304;4.968;2022-12-05T04:13:42;7.85;78.13
9861;DHT22;4969;52.304;4.968;2022-12-05T04:16:13;7.26;83.42
9861;DHT22;4969;52.304;4.968;2022-12-05T04:19:02;6.92;78.97
9861;DHT22;4969;52.304;4.968;2022-12-05T04:21:33;8.44;76.96
9861;DHT22;4969;52.304;4.968;2022-12-05T04:24:04;7.72;76.84
9861;DHT22;4969;52.304;4.968;2022-12-05T04:26:55;7.30;84.14
9861;DHT22;4969;52.304;4.968;2022-12-05T04:29:28;6.81;78.38
9861;DHT22;4969;52.304;4.968;2022-12-05T04:32:02;7.54;85.08
9861;DHT22;4969;52.304;4.968;2022-12-05T04:34:32;8.85;76.64
9861;DHT22;4969;52.304;4.968;2022-12-05T04:37:03;7.68;76.27
9861;DHT22;4969;52.304;4.968;2022-12-05T04:39:36;7.01;79.95
9861;DHT22;4969;52.304;4.968;2022-12-05T04:42:08;7.54;82.18
9861;DHT22;4969;52.304;4.968;2022-12-05T04:44:38;7.48;81.70
9861;DHT22;4969;52.304;4.968;2022-12-05T04:47:08;7.39;77.82
9861;DHT22;4969;52.304;4.968;2022-12-05T04:49:36;7.54;78.26
9861;DHT22;4969;52.304;4.968;2022-12-05T04:52:07;6.58;80.00
9861;DHT22;4969;52.304;4.968;2022-12-05T04:54:37;6.44;80.74
9861;DHT22;4969;52.304;4.968;2022-12-05T04:57:11;6.25;82.93
9861;DHT22;4969;52.304;4.968;2022-12-05T04:59:38;7.01;83.32
9861;DHT22;4969;52.304;4.968;2022-12-05T05:02:08;6.78;84.21
9861;DHT22;4969;52.304;4.968;2022-12-05T05:04:38;7.60;83.10
9861;DHT22;4969;52.304;4.968;2022-12-05T05:07:08;7.62;79.97
9861;DHT22;4969;52.304;4.968;2022-12-05T05:09:35;6.41;81.13
9861;DHT22;4969;52.304;4.968;2022-12-05T05:12:02;6.75;81.26
9861;DHT22;4969;52.304;4.968;2022-12-05T05:14:28;6.70;84.21
9861;DHT22;4969;52.304;4.968;2022-12-05T05:16:55;7.15;87.45
9861;DHT22;4969;52.304;4.968;2022-12-05T05:19:23;6.77;82.16
9861;DHT22;4969;52.304;4.968;2022-12-05T05:21:51;6.96;81.47
9861;DHT22;4969;52.304;4.968;2022-12-05T05:24:17;6.29;82.76
9861;DHT22;4969;52.304;4.968;2022-12-05T05:26:46;6.85;85.65
9861;DHT22;4969;52.304;4.968;2022-12-05T05:29:13;6.58;82.10
9861;DHT22;4969;52.304;4.968;2022-12-05T05:31:43;7.24;85.40
9861;DHT22;4969;52.304;4.968;2022-12-05T05:34:10;6.50;82.68
9861;DHT22;4969;52.304;4.968;2022-12-05T05:36:41;6.57;82.37
9861;DHT22;4969;52.304;4.968;2022-12-05T05:39:11;6.39;82.26
9861;DHT22;4969;52.304;4.968;2022-12-05T05:41:39;5.88;84.81
9861;DHT22;4969;52.304;4.968;2022-12-05T05:44:06;6.33;83.85
9861;DHT22;4969;52.304;4.968;2022-12-05T05:46:34;6.39;83.57
9861;DHT22;4969;52.304;4.968;2022-12-05T05:49:01;6.25;84.65
9861;DHT22;4969;52.304;4.968;2022-12-05T05:51:27;6.30;83.55
9861;DHT22;4969;52.304;4.968;2022-12-05T05:53:56;6.32;83.90
9861;DHT22;4969;52.304;4.968;2022-12-05T05:56:23;6.77;86.87
9861;DHT22;4969;52.304;4.968;2022-12-05T05:58:54;6.47;82.83
9861;DHT22;4969;52.304;4.968;2022-12-05T06:01:21;7.12;85.31
9861;DHT22;4969;52.304;4.968;2022-12-05T06:03:48;6.87;84.68
9861;DHT22;4969;52.304;4.968;2022-12-05T06:06:16;6.28;83.51
9861;DHT22;4969;52.304;4.968;2022-12-05T06:08:43;7.08;84.35
9861;DHT22;4969;52.304;4.968;2022-12-05T06:11:13;6.87;82.35
9861;DHT22;4969;52.304;4.968;2022-12-05T06:13:40;6.51;83.05
9861;DHT22;4969;52.304;4.968;2022-12-05T06:16:09;6.01;85.03
9861;DHT22;4969;52.304;4.968;2022-12-05T06:18:36;5.98;85.56
9861;DHT22;4969;52.304;4.968;2022-12-05T06:21:04;6.48;87.36
9861;DHT22;4969;52.304;4.968;2022-12-05T06:23:33;6.67;84.11
9861;DHT22;4969;52.304;4.968;2022-12-05T06:25:59;6.33;85.35
9861;DHT22;4969;52.304;4.968;2022-12-05T06:28:27;6.16;85.01
9861;DHT22;4969;52.304;4.968;2022-12-05T06:30:54;6.87;85.53
9861;DHT22;4969;52.304;4.968;2022-12-05T06:33:21;6.73;88.01
9861;DHT22;4969;52.304;4.968;2022-12-05T06:35:47;6.33;85.16
9861;DHT22;4969;52.304;4.968;2022-12-05T06:38:14;6.36;85.60
9861;DHT22;4969;52.304;4.968;2022-12-05T06:40:42;7.12;87.89
9861;DHT22;4969;52.304;4.968;2022-12-05T06:43:09;6.73;83.97
9861;DHT22;4969;52.304;4.968;2022-12-05T06:45:37;6.41;83.94
9861;DHT22;4969;52.304;4.968;2022-12-05T06:48:04;6.75;86.62
9861;DHT22;4969;52.304;4.968;2022-12-05T06:50:31;6.51;85.78
9861;DHT22;4969;52.304;4.968;2022-12-05T06:52:58;6.10;86.00
9861;DHT22;4969;52.304;4.968;2022-12-05T06:55:24;5.82;86.82
9861;DHT22;4969;52.304;4.968;2022-12-05T06:57:51;5.84;87.54
9861;DHT22;4969;52.304;4.968;2022-12-05T07:00:18;6.12;87.25
9861;DHT22;4969;52.304;4.968;2022-12-05T07:03:04;6.63;86.95
9861;DHT22;4969;52.304;4.968;2022-12-05T07:05:31;6.20;85.70
9861;DHT22;4969;52.304;4.968;2022-12-05T07:07:58;6.05;86.34
9861;DHT22;4969;52.304;4.968;2022-12-05T07:10:25;6.02;86.84
9861;DHT22;4969;52.304;4.968;2022-12-05T07:12:51;5.97;86.73
9861;DHT22;4969;52.304;4.968;2022-12-05T07:15:18;6.13;86.74
9861;DHT22;4969;52.304;4.968;2022-12-05T07:17:44;6.05;86.81
9861;DHT22;4969;52.304;4.968;2022-12-05T07:20:12;6.08;86.88
9861;DHT22;4969;52.304;4.968;2022-12-05T07:22:42;6.15;87.92
9861;DHT22;4969;52.304;4.968;2022-12-05T07:25:09;6.33;86.55
9861;DHT22;4969;52.304;4.968;2022-12-05T07:27:35;6.33;87.13
9861;DHT22;4969;52.304;4.968;2022-12-05T07:30:02;6.74;86.39
9861;DHT22;4969;52.304;4.968;2022-12-05T07:32:31;6.33;85.32
9861;DHT22;4969;52.304;4.968;2022-12-05T07:34:58;6.39;85.48
9861;DHT22;4969;52.304;4.968;2022-12-05T07:37:26;6.18;86.49
9861;DHT22;4969;52.304;4.968;2022-12-05T07:39:52;6.08;86.50
9861;DHT22;4969;52.304;4.968;2022-12-05T07:42:19;6.13;86.72
9861;DHT22;4969;52.304;4.968;2022-12-05T07:44:46;6.16;86.86
9861;DHT22;4969;52.304;4.968;2022-12-05T07:47:12;6.39;86.13
9861;DHT22;4969;52.304;4.968;2022-12-05T07:49:39;6.19;86.50
9861;DHT22;4969;52.304;4.968;2022-12-05T07:52:05;6.16;86.38
9861;DHT22;4969;52.304;4.968;2022-12-05T07:54:35;6.20;86.66
9861;DHT22;4969;52.304;4.968;2022-12-05T07:57:01;7.30;85.52
9861;DHT22;4969;52.304;4.968;2022-12-05T07:59:28;7.15;88.95
9861;DHT22;4969;52.304;4.968;2022-12-05T08:01:54;6.83;84.93
9861;DHT22;4969;52.304;4.968;2022-12-05T08:04:21;6.51;84.85
9861;DHT22;4969;52.304;4.968;2022-12-05T08:06:47;6.71;84.50
9861;DHT22;4969;52.304;4.968;2022-12-05T08:09:14;6.37;85.10
9861;DHT22;4969;52.304;4.968;2022-12-05T08:11:42;6.23;86.19
9861;DHT22;4969;52.304;4.968;2022-12-05T08:14:09;6.25;86.54
9861;DHT22;4969;52.304;4.968;2022-12-05T08:16:35;6.40;85.49
9861;DHT22;4969;52.304;4.968;2022-12-05T08:19:05;6.46;85.29
9861;DHT22;4969;52.304;4.968;2022-12-05T08:21:33;6.23;85.97
9861;DHT22;4969;52.304;4.968;2022-12-05T08:24:00;6.15;86.41
9861;DHT22;4969;52.304;4.968;2022-12-05T08:26:28;6.12;87.01
9861;DHT22;4969;52.304;4.968;2022-12-05T08:28:58;6.34;86.53
9861;DHT22;4969;52.304;4.968;2022-12-05T08:31:27;6.64;87.32
9861;DHT22;4969;52.304;4.968;2022-12-05T08:33:56;6.06;86.58
9861;DHT22;4969;52.304;4.968;2022-12-05T08:36:23;6.18;86.64
9861;DHT22;4969;52.304;4.968;2022-12-05T08:38:55;6.15;86.87
9861;DHT22;4969;52.304;4.968;2022-12-05T08:41:21;6.23;86.60
9861;DHT22;4969;52.304;4.968;2022-12-05T08:43:52;6.44;85.76
9861;DHT22;4969;52.304;4.968;2022-12-05T08:46:21;6.43;86.38
9861;DHT22;4969;52.304;4.968;2022-12-05T08:48:47;7.18;86.28
9861;DHT22;4969;52.304;4.968;2022-12-05T08:51:14;7.05;85.23
9861;DHT22;4969;52.304;4.968;2022-12-05T08:53:40;6.78;84.62
9861;DHT22;4969;52.304;4.968;2022-12-05T08:56:08;6.77;86.70
9861;DHT22;4969;52.304;4.968;2022-12-05T08:58:35;6.56;84.76
9861;DHT22;4969;52.304;4.968;2022-12-05T09:01:03;6.73;84.87
9861;DHT22;4969;52.304;4.968;2022-12-05T09:03:31;6.56;85.06
9861;DHT22;4969;52.304;4.968;2022-12-05T09:06:05;6.77;85.61
9861;DHT22;4969;52.304;4.968;2022-12-05T09:08:32;7.02;86.11
9861;DHT22;4969;52.304;4.968;2022-12-05T09:10:59;6.71;83.98
9861;DHT22;4969;52.304;4.968;2022-12-05T09:13:25;6.34;85.40
9861;DHT22;4969;52.304;4.968;2022-12-05T09:15:52;6.63;87.11
9861;DHT22;4969;52.304;4.968;2022-12-05T09:18:18;6.56;85.55
9861;DHT22;4969;52.304;4.968;2022-12-05T09:20:46;6.44;85.00
9861;DHT22;4969;52.304;4.968;2022-12-05T09:23:13;6.25;86.21
9861;DHT22;4969;52.304;4.968;2022-12-05T09:25:39;6.26;86.36
9861;DHT22;4969;52.304;4.968;2022-12-05T09:28:06;6.54;85.92
9861;DHT22;4969;52.304;4.968;2022-12-05T09:30:33;6.25;85.99
9861;DHT22;4969;52.304;4.968;2022-12-05T09:32:59;6.60;86.98
9861;DHT22;4969;52.304;4.968;2022-12-05T09:35:26;6.43;85.31
9861;DHT22;4969;52.304;4.968;2022-12-05T09:37:54;6.32;86.75
9861;DHT22;4969;52.304;4.968;2022-12-05T09:40:21;6.34;85.95
9861;DHT22;4969;52.304;4.968;2022-12-05T09:42:56;6.30;85.88
9861;DHT22;4969;52.304;4.968;2022-12-05T09:45:28;6.13;86.52
9861;DHT22;4969;52.304;4.968;2022-12-05T09:47:58;6.22;87.60
9861;DHT22;4969;52.304;4.968;2022-12-05T09:50:26;6.13;87.09
9861;DHT22;4969;52.304;4.968;2022-12-05T09:53:01;6.25;86.65
9861;DHT22;4969;52.304;4.968;2022-12-05T09:55:35;6.32;86.19
9861;DHT22;4969;52.304;4.968;2022-12-05T09:58:04;6.25;88.43
9861;DHT22;4969;52.304;4.968;2022-12-05T10:00:37;6.18;87.13
9861;DHT22;4969;52.304;4.968;2022-12-05T10:03:11;6.30;87.45
9861;DHT22;4969;52.304;4.968;2022-12-05T10:05:46;6.06;87.33
9861;DHT22;4969;52.304;4.968;2022-12-05T10:08:22;5.98;87.88
9861;DHT22;4969;52.304;4.968;2022-12-05T10:10:57;6.26;87.54
9861;DHT22;4969;52.304;4.968;2022-12-05T10:13:42;6.18;87.08
9861;DHT22;4969;52.304;4.968;2022-12-05T10:16:13;6.22;87.94
9861;DHT22;4969;52.304;4.968;2022-12-05T10:18:45;6.19;87.06
9861;DHT22;4969;52.304;4.968;2022-12-05T10:21:16;6.12;87.89
9861;DHT22;4969;52.304;4.968;2022-12-05T10:23:51;6.09;87.60
9861;DHT22;4969;52.304;4.968;2022-12-05T10:26:20;6.57;87.48
9861;DHT22;4969;52.304;4.968;2022-12-05T10:28:50;6.53;86.07
9861;DHT22;4969;52.304;4.968;2022-12-05T10:31:24;6.46;86.33
9861;DHT22;4969;52.304;4.968;2022-12-05T10:34:02;6.70;85.79
9861;DHT22;4969;52.304;4.968;2022-12-05T10:36:29;6.51;85.84
9861;DHT22;4969;52.304;4.968;2022-12-05T10:38:58;6.43;86.39
9861;DHT22;4969;52.304;4.968;2022-12-05T10:41:24;6.37;86.57
9861;DHT22;4969;52.304;4.968;2022-12-05T10:43:53;6.48;87.58
9861;DHT22;4969;52.304;4.968;2022-12-05T10:46:20;6.30;86.67
9861;DHT22;4969;52.304;4.968;2022-12-05T10:48:47;7.20;89.87
9861;DHT22;4969;52.304;4.968;2022-12-05T10:51:16;7.78;85.61
9861;DHT22;4969;52.304;4.968;2022-12-05T10:53:44;7.26;86.77
9861;DHT22;4969;52.304;4.968;2022-12-05T10:56:38;7.27;88.38
9861;DHT22;4969;52.304;4.968;2022-12-05T10:59:05;7.37;83.82
9861;DHT22;4969;52.304;4.968;2022-12-05T11:01:32;7.52;85.26
9861;DHT22;4969;52.304;4.968;2022-12-05T11:04:00;7.72;84.91
9861;DHT22;4969;52.304;4.968;2022-12-05T11:06:29;6.84;84.66
9861;DHT22;4969;52.304;4.968;2022-12-05T11:08:56;6.47;86.07
9861;DHT22;4969;52.304;4.968;2022-12-05T11:11:25;6.70;86.22
9861;DHT22;4969;52.304;4.968;2022-12-05T11:13:56;6.67;86.33
9861;DHT22;4969;52.304;4.968;2022-12-05T11:16:25;7.15;87.85
9861;DHT22;4969;52.304;4.968;2022-12-05T11:18:52;7.05;84.80
9861;DHT22;4969;52.304;4.968;2022-12-05T11:21:20;6.63;85.32
9861;DHT22;4969;52.304;4.968;2022-12-05T11:23:47;6.41;86.52
9861;DHT22;4969;52.304;4.968;2022-12-05T11:26:19;6.80;86.12
9861;DHT22;4969;52.304;4.968;2022-12-05T11:28:59;6.56;86.31
9861;DHT22;4969;52.304;4.968;2022-12-05T11:31:27;6.81;86.01
9861;DHT22;4969;52.304;4.968;2022-12-05T11:34:13;6.88;86.30
9861;DHT22;4969;52.304;4.968;2022-12-05T11:36:45;6.58;86.47
9861;DHT22;4969;52.304;4.968;2022-12-05T11:39:13;6.53;86.58
9861;DHT22;4969;52.304;4.968;2022-12-05T11:42:06;6.67;86.90
9861;DHT22;4969;52.304;4.968;2022-12-05T11:45:00;6.37;87.08
9861;DHT22;4969;52.304;4.968;2022-12-05T11:47:40;6.50;87.83
9861;DHT22;4969;52.304;4.968;2022-12-05T11:50:21;6.44;88.19
9861;DHT22;4969;52.304;4.968;2022-12-05T11:52:56;6.40;87.54
9861;DHT22;4969;52.304;4.968;2022-12-05T11:55:29;6.56;87.78
9861;DHT22;4969;52.304;4.968;2022-12-05T11:58:10;6.80;87.05
9861;DHT22;4969;52.304;4.968;2022-12-05T12:00:50;6.47;86.82
9861;DHT22;4969;52.304;4.968;2022-12-05T12:03:40;6.48;86.47
9861;DHT22;4969;52.304;4.968;2022-12-05T12:06:22;6.47;87.14
9861;DHT22;4969;52.304;4.968;2022-12-05T12:09:01;6.50;87.31
9861;DHT22;4969;52.304;4.968;2022-12-05T12:11:36;6.54;87.00
9861;DHT22;4969;52.304;4.968;2022-12-05T12:14:12;6.74;86.82
9861;DHT22;4969;52.304;4.968;2022-12-05T12:16:47;7.31;85.75
9861;DHT22;4969;52.304;4.968;2022-12-05T12:19:28;7.06;84.57
9861;DHT22;4969;52.304;4.968;2022-12-05T12:22:11;6.98;84.71
9861;DHT22;4969;52.304;4.968;2022-12-05T12:24:54;7.34;82.91
9861;DHT22;4969;52.304;4.968;2022-12-05T12:27:30;6.92;86.68
9861;DHT22;4969;52.304;4.968;2022-12-05T12:30:02;7.31;84.89
9861;DHT22;4969;52.304;4.968;2022-12-05T12:32:38;6.78;84.53
9861;DHT22;4969;52.304;4.968;2022-12-05T12:35:29;6.83;85.77
9861;DHT22;4969;52.304;4.968;2022-12-05T12:38:12;6.67;85.18
9861;DHT22;4969;52.304;4.968;2022-12-05T12:40:46;6.53;85.94
9861;DHT22;4969;52.304;4.968;2022-12-05T12:43:24;6.67;85.30
9861;DHT22;4969;52.304;4.968;2022-12-05T12:46:12;6.50;86.13
9861;DHT22;4969;52.304;4.968;2022-12-05T12:48:54;6.50;86.37
9861;DHT22;4969;52.304;4.968;2022-12-05T12:51:23;6.80;85.09
9861;DHT22;4969;52.304;4.968;2022-12-05T12:54:08;6.61;85.54
9861;DHT22;4969;52.304;4.968;2022-12-05T12:56:48;6.39;86.12
9861;DHT22;4969;52.304;4.968;2022-12-05T12:59:33;6.39;86.12
9861;DHT22;4969;52.304;4.968;2022-12-05T13:02:10;6.30;87.05
9861;DHT22;4969;52.304;4.968;2022-12-05T13:04:43;6.33;87.13
9861;DHT22;4969;52.304;4.968;2022-12-05T13:07:15;6.53;87.54
9861;DHT22;4969;52.304;4.968;2022-12-05T13:09:47;6.51;86.53
9861;DHT22;4969;52.304;4.968;2022-12-05T13:12:16;6.36;86.90
9861;DHT22;4969;52.304;4.968;2022-12-05T13:14:50;6.47;86.88
9861;DHT22;4969;52.304;4.968;2022-12-05T13:17:19;6.60;88.56
9861;DHT22;4969;52.304;4.968;2022-12-05T13:19:49;6.43;86.87
9861;DHT22;4969;52.304;4.968;2022-12-05T13:22:18;6.36;87.35
9861;DHT22;4969;52.304;4.968;2022-12-05T13:24:46;6.36;87.61
9861;DHT22;4969;52.304;4.968;2022-12-05T13:27:16;6.57;87.31
9861;DHT22;4969;52.304;4.968;2022-12-05T13:29:48;6.80;86.83
9861;DHT22;4969;52.304;4.968;2022-12-05T13:32:31;6.54;86.48
9861;DHT22;4969;52.304;4.968;2022-12-05T13:35:01;6.26;87.58
9861;DHT22;4969;52.304;4.968;2022-12-05T13:37:34;6.63;87.72
9861;DHT22;4969;52.304;4.968;2022-12-05T13:40:27;6.32;87.38
9861;DHT22;4969;52.304;4.968;2022-12-05T13:43:14;6.28;88.14
9861;DHT22;4969;52.304;4.968;2022-12-05T13:45:57;6.48;86.98
9861;DHT22;4969;52.304;4.968;2022-12-05T13:48:26;6.29;88.12
9861;DHT22;4969;52.304;4.968;2022-12-05T13:50:57;6.68;87.87
9861;DHT22;4969;52.304;4.968;2022-12-05T13:53:29;6.37;87.93
9861;DHT22;4969;52.304;4.968;2022-12-05T13:55:59;6.46;87.26
9861;DHT22;4969;52.304;4.968;2022-12-05T13:58:41;6.20;88.29
9861;DHT22;4969;52.304;4.968;2022-12-05T14:01:45;6.53;88.34
9861;DHT22;4969;52.304;4.968;2022-12-05T14:04:44;6.16;88.65
9861;DHT22;4969;52.304;4.968;2022-12-05T14:07:38;6.40;89.14
9861;DHT22;4969;52.304;4.968;2022-12-05T14:10:06;6.34;88.62
9861;DHT22;4969;52.304;4.968;2022-12-05T14:12:49;6.48;88.53
9861;DHT22;4969;52.304;4.968;2022-12-05T14:15:24;6.33;88.75
9861;DHT22;4969;52.304;4.968;2022-12-05T14:17:55;6.33;89.09
9861;DHT22;4969;52.304;4.968;2022-12-05T14:20:25;6.28;88.69
9861;DHT22;4969;52.304;4.968;2022-12-05T14:23:12;6.13;89.23
9861;DHT22;4969;52.304;4.968;2022-12-05T14:26:03;6.29;89.45
9861;DHT22;4969;52.304;4.968;2022-12-05T14:28:46;6.64;90.07
9861;DHT22;4969;52.304;4.968;2022-12-05T14:31:28;6.34;88.39
9861;DHT22;4969;52.304;4.968;2022-12-05T14:34:15;6.36;89.36
9861;DHT22;4969;52.304;4.968;2022-12-05T14:36:57;6.41;88.98
9861;DHT22;4969;52.304;4.968;2022-12-05T14:39:34;6.57;88.09
9861;DHT22;4969;52.304;4.968;2022-12-05T14:42:04;6.57;88.95
9861;DHT22;4969;52.304;4.968;2022-12-05T14:44:32;6.28;89.11
9861;DHT22;4969;52.304;4.968;2022-12-05T14:47:00;6.20;89.63
9861;DHT22;4969;52.304;4.968;2022-12-05T14:49:34;6.20;89.53
9861;DHT22;4969;52.304;4.968;2022-12-05T14:52:09;6.19;89.79
9861;DHT22;4969;52.304;4.968;2022-12-05T14:54:37;6.22;89.41
9861;DHT22;4969;52.304;4.968;2022-12-05T14:57:10;6.02;90.18
9861;DHT22;4969;52.304;4.968;2022-12-05T14:59:44;6.05;90.70
9861;DHT22;4969;52.304;4.968;2022-12-05T15:02:18;6.18;90.07
9861;DHT22;4969;52.304;4.968;2022-12-05T15:04:50;6.26;90.11
9861;DHT22;4969;52.304;4.968;2022-12-05T15:07:19;6.18;90.45
9861;DHT22;4969;52.304;4.968;2022-12-05T15:09:56;6.13;90.58
9861;DHT22;4969;52.304;4.968;2022-12-05T15:12:26;6.16;90.66
9861;DHT22;4969;52.304;4.968;2022-12-05T15:15:02;6.30;90.28
9861;DHT22;4969;52.304;4.968;2022-12-05T15:17:36;6.33;90.03
9861;DHT22;4969;52.304;4.968;2022-12-05T15:20:06;6.43;89.70
9861;DHT22;4969;52.304;4.968;2022-12-05T15:22:35;6.37;89.55
9861;DHT22;4969;52.304;4.968;2022-12-05T15:25:23;6.32;89.99
9861;DHT22;4969;52.304;4.968;2022-12-05T15:27:59;6.29;90.12
9861;DHT22;4969;52.304;4.968;2022-12-05T15:30:28;6.32;90.15
9861;DHT22;4969;52.304;4.968;2022-12-05T15:32:55;6.26;90.04
9861;DHT22;4969;52.304;4.968;2022-12-05T15:35:24;6.54;90.65
9861;DHT22;4969;52.304;4.968;2022-12-05T15:37:54;6.47;89.53
9861;DHT22;4969;52.304;4.968;2022-12-05T15:40:23;6.44;89.55
9861;DHT22;4969;52.304;4.968;2022-12-05T15:42:52;6.37;89.57
9861;DHT22;4969;52.304;4.968;2022-12-05T15:45:22;6.34;89.72
9861;DHT22;4969;52.304;4.968;2022-12-05T15:47:50;6.29;89.85
9861;DHT22;4969;52.304;4.968;2022-12-05T15:50:22;6.28;89.96
9861;DHT22;4969;52.304;4.968;2022-12-05T15:52:53;6.32;90.08
9861;DHT22;4969;52.304;4.968;2022-12-05T15:55:25;6.40;89.68
9861;DHT22;4969;52.304;4.968;2022-12-05T15:57:56;6.40;89.67
9861;DHT22;4969;52.304;4.968;2022-12-05T16:00:25;6.41;89.66
9861;DHT22;4969;52.304;4.968;2022-12-05T16:02:56;6.32;89.89
9861;DHT22;4969;52.304;4.968;2022-12-05T16:05:28;6.28;89.97
9861;DHT22;4969;52.304;4.968;2022-12-05T16:07:56;6.48;89.57
9861;DHT22;4969;52.304;4.968;2022-12-05T16:10:25;6.30;89.53
9861;DHT22;4969;52.304;4.968;2022-12-05T16:12:51;6.28;89.84
9861;DHT22;4969;52.304;4.968;2022-12-05T16:15:21;6.33;89.79
9861;DHT22;4969;52.304;4.968;2022-12-05T16:17:52;6.46;89.94
9861;DHT22;4969;52.304;4.968;2022-12-05T16:20:22;6.44;89.36
9861;DHT22;4969;52.304;4.968;2022-12-05T16:22:52;6.37;89.33
9861;DHT22;4969;52.304;4.968;2022-12-05T16:25:22;6.40;89.21
9861;DHT22;4969;52.304;4.968;2022-12-05T16:28:11;6.40;89.31
9861;DHT22;4969;52.304;4.968;2022-12-05T16:30:39;6.34;89.24
9861;DHT22;4969;52.304;4.968;2022-12-05T16:33:12;6.46;89.41
9861;DHT22;4969;52.304;4.968;2022-12-05T16:35:40;6.36;89.22
9861;DHT22;4969;52.304;4.968;2022-12-05T16:38:17;6.46;89.19
9861;DHT22;4969;52.304;4.968;2022-12-05T16:40:54;6.36;89.07
9861;DHT22;4969;52.304;4.968;2022-12-05T16:43:28;6.40;89.51